Time;durP1;ratioP1;P1;durP2;ratioP2;P2;SDS_P1;SDS_P2;PMS_P1;PMS_P2;Temp;Humidity;BMP_temperature;BMP_pressure;BME280_temperature;BME280_humidity;BME280_pressure;Samples;Min_cycle;Max_cycle;Signal;HPM_P1;HPM_P2
2022/12/12 00:00:22;;;;;;;8.20;7.07;;;;;;;;;;2123753;27;20079;-44
2022/12/12 00:01:25;;;;;;;9.10;7.70;;;;;;;;;;2123871;28;20040;-44
2022/12/12 00:02:26;;;;;;;8.98;7.75;;;;;;;;;;2123862;28;20058;-43
2022/12/12 00:03:28;;;;;;;8.65;7.47;;;;;;;;;;2123817;28;20044;-44
2022/12/12 00:04:29;;;;;;;9.38;7.55;;;;;;;;;;2123912;27;20069;-57
2022/12/12 00:05:30;;;;;;;8.68;7.57;;;;;;;;;;2123795;28;20479;-43
2022/12/12 00:06:32;;;;;;;10.25;8.13;;;;;;;;;;2123780;28;20054;-43
2022/12/12 00:07:32;;;;;;;10.38;7.72;;;;;;;;;;2123716;28;20438;-43
2022/12/12 00:08:34;;;;;;;9.73;8.10;;;;;;;;;;2123844;28;20051;-43
2022/12/12 00:09:35;;;;;;;9.77;7.95;;;;;;;;;;2121528;28;20479;-57
2022/12/12 00:10:36;;;;;;;9.50;8.48;;;;;;;;;;2115216;28;20573;-43
2022/12/12 00:11:37;;;;;;;8.53;6.23;;;;;;;;;;2115286;28;20126;-57
2022/12/12 00:12:38;;;;;;;8.73;6.95;;;;;;;;;;2115404;28;20312;-43
2022/12/12 00:13:39;;;;;;;10.00;8.37;;;;;;;;;;2115286;28;20489;-57
2022/12/12 00:14:40;;;;;;;9.65;8.48;;;;;;;;;;2115125;28;20043;-57
2022/12/12 00:15:41;;;;;;;10.02;8.23;;;;;;;;;;2115362;28;20047;-57
2022/12/12 00:16:42;;;;;;;9.63;6.67;;;;;;;;;;2115220;28;20487;-43
2022/12/12 00:17:43;;;;;;;9.05;7.85;;;;;;;;;;2115379;28;20052;-57
2022/12/12 00:18:44;;;;;;;11.93;7.75;;;;;;;;;;2115381;28;20047;-57
2022/12/12 00:19:45;;;;;;;10.60;8.35;;;;;;;;;;2115246;28;20047;-57
2022/12/12 00:20:50;;;;;;;9.25;7.22;;;;;;;;;;2115124;28;20052;-43
2022/12/12 00:21:51;;;;;;;10.02;8.45;;;;;;;;;;2115394;28;20040;-57
2022/12/12 00:22:52;;;;;;;10.23;8.30;;;;;;;;;;2115011;28;20066;-57
2022/12/12 00:23:53;;;;;;;8.73;5.78;;;;;;;;;;2115161;28;20400;-57
2022/12/12 00:24:55;;;;;;;9.55;6.60;;;;;;;;;;2115251;28;20379;-57
2022/12/12 00:25:56;;;;;;;8.57;7.57;;;;;;;;;;2115038;28;20052;-57
2022/12/12 00:26:57;;;;;;;9.15;6.65;;;;;;;;;;2115098;28;20050;-43
2022/12/12 00:27:59;;;;;;;9.77;8.15;;;;;;;;;;2115192;28;20048;-43
2022/12/12 00:29:00;;;;;;;10.30;8.20;;;;;;;;;;2115153;28;20067;-43
2022/12/12 00:30:01;;;;;;;10.30;7.53;;;;;;;;;;2115190;28;20047;-57
2022/12/12 00:31:02;;;;;;;11.00;9.27;;;;;;;;;;2115236;28;20408;-56
2022/12/12 00:32:04;;;;;;;10.93;9.13;;;;;;;;;;2115201;28;20120;-48
2022/12/12 00:33:05;;;;;;;11.40;9.23;;;;;;;;;;2115352;28;20051;-43
2022/12/12 00:34:06;;;;;;;12.38;8.77;;;;;;;;;;2115282;28;20401;-43
2022/12/12 00:35:07;;;;;;;11.50;9.35;;;;;;;;;;2115200;28;20043;-57
2022/12/12 00:36:09;;;;;;;11.57;8.90;;;;;;;;;;2115301;28;20144;-43
2022/12/12 00:37:10;;;;;;;12.13;8.40;;;;;;;;;;2115073;28;20044;-43
2022/12/12 00:38:11;;;;;;;12.02;9.30;;;;;;;;;;2115199;28;20066;-43
2022/12/12 00:39:12;;;;;;;11.25;7.80;;;;;;;;;;2115054;28;20468;-43
2022/12/12 00:40:18;;;;;;;11.35;9.07;;;;;;;;;;2115146;28;20139;-57
2022/12/12 00:41:20;;;;;;;9.93;6.83;;;;;;;;;;2115083;28;20078;-56
2022/12/12 00:42:21;;;;;;;11.00;9.07;;;;;;;;;;2114998;28;20047;-57
2022/12/12 00:43:22;;;;;;;12.10;8.98;;;;;;;;;;2114969;28;20047;-57
2022/12/12 00:44:23;;;;;;;12.55;9.70;;;;;;;;;;2115196;28;20051;-57
2022/12/12 00:45:24;;;;;;;11.73;8.38;;;;;;;;;;2115130;28;20572;-43
2022/12/12 00:46:25;;;;;;;12.73;9.65;;;;;;;;;;2115087;28;20044;-57
2022/12/12 00:47:27;;;;;;;11.93;9.27;;;;;;;;;;2115162;28;20062;-57
2022/12/12 00:48:28;;;;;;;12.20;9.60;;;;;;;;;;2115117;28;20035;-57
2022/12/12 00:49:29;;;;;;;11.43;9.25;;;;;;;;;;2115052;28;20058;-43
2022/12/12 00:50:30;;;;;;;12.25;9.55;;;;;;;;;;2114835;28;20054;-56
2022/12/12 00:51:32;;;;;;;10.80;8.10;;;;;;;;;;2122756;28;20047;-42
2022/12/12 00:52:33;;;;;;;11.38;9.27;;;;;;;;;;2123616;28;20415;-54
2022/12/12 00:53:34;;;;;;;12.10;9.65;;;;;;;;;;2123462;28;20079;-42
2022/12/12 00:54:35;;;;;;;11.00;8.63;;;;;;;;;;2123402;27;20104;-55
2022/12/12 00:55:36;;;;;;;12.30;9.27;;;;;;;;;;2123473;28;20096;-43
2022/12/12 00:56:38;;;;;;;11.57;9.30;;;;;;;;;;2123189;28;20377;-55
2022/12/12 00:57:39;;;;;;;10.93;8.55;;;;;;;;;;2123464;27;20043;-43
2022/12/12 00:58:40;;;;;;;13.73;9.85;;;;;;;;;;2123482;28;20055;-43
2022/12/12 00:59:41;;;;;;;12.88;7.88;;;;;;;;;;2123457;27;20054;-43
2022/12/12 01:00:42;;;;;;;11.88;9.45;;;;;;;;;;2123477;28;20126;-56
2022/12/12 01:01:43;;;;;;;12.20;9.90;;;;;;;;;;2123418;28;20047;-42
2022/12/12 01:02:45;;;;;;;12.05;9.90;;;;;;;;;;2123476;28;20047;-56
2022/12/12 01:03:46;;;;;;;10.43;7.70;;;;;;;;;;2123490;28;20054;-55
2022/12/12 01:04:47;;;;;;;11.93;9.00;;;;;;;;;;2123587;27;20047;-55
2022/12/12 01:05:48;;;;;;;14.00;9.00;;;;;;;;;;2123525;28;20051;-43
2022/12/12 01:06:50;;;;;;;14.40;11.00;;;;;;;;;;2123692;28;20055;-42
2022/12/12 01:07:50;;;;;;;12.50;9.63;;;;;;;;;;2123459;28;20491;-56
2022/12/12 01:08:52;;;;;;;12.18;9.20;;;;;;;;;;2123391;28;20135;-55
2022/12/12 01:09:53;;;;;;;13.73;10.63;;;;;;;;;;2118676;28;20039;-43
2022/12/12 01:10:54;;;;;;;12.35;8.65;;;;;;;;;;2114703;28;20096;-43
2022/12/12 01:11:56;;;;;;;14.27;10.23;;;;;;;;;;2114877;28;20044;-43
2022/12/12 01:12:56;;;;;;;12.75;10.07;;;;;;;;;;2114992;28;20100;-56
2022/12/12 01:13:58;;;;;;;15.73;10.98;;;;;;;;;;2114929;28;20048;-43
2022/12/12 01:14:58;;;;;;;12.10;7.82;;;;;;;;;;2114698;28;20054;-55
2022/12/12 01:16:00;;;;;;;17.63;12.40;;;;;;;;;;2114807;28;20067;-55
2022/12/12 01:17:01;;;;;;;14.82;11.40;;;;;;;;;;2114876;28;20126;-55
2022/12/12 01:18:02;;;;;;;14.73;10.10;;;;;;;;;;2114931;28;20095;-56
2022/12/12 01:19:03;;;;;;;15.35;11.98;;;;;;;;;;2114873;28;20549;-55
2022/12/12 01:20:04;;;;;;;16.13;11.65;;;;;;;;;;2114828;28;20048;-43
2022/12/12 01:21:07;;;;;;;15.40;9.93;;;;;;;;;;2114832;28;20052;-55
2022/12/12 01:22:09;;;;;;;16.35;11.98;;;;;;;;;;2114857;28;20043;-56
2022/12/12 01:23:10;;;;;;;16.48;11.98;;;;;;;;;;2114785;28;20545;-43
2022/12/12 01:24:11;;;;;;;16.45;10.43;;;;;;;;;;2114679;28;20036;-56
2022/12/12 01:25:13;;;;;;;15.15;11.90;;;;;;;;;;2114801;28;20047;-43
2022/12/12 01:26:15;;;;;;;12.68;9.15;;;;;;;;;;2114682;28;20066;-56
2022/12/12 02:45:58;;;;;;;12.00;9.42;;;;;;;;;;4259269;27;20291;-43
2022/12/12 02:47:02;;;;;;;12.70;9.05;;;;;;;;;;2129821;27;20406;-46
2022/12/12 02:48:07;;;;;;;17.40;9.77;;;;;;;;;;2129900;27;20058;-46
2022/12/12 02:49:09;;;;;;;18.02;10.35;;;;;;;;;;2129649;27;20051;-46
2022/12/12 02:50:11;;;;;;;16.85;10.90;;;;;;;;;;2129962;27;20049;-48
2022/12/12 02:51:14;;;;;;;19.45;13.00;;;;;;;;;;2130065;27;20066;-44
2022/12/12 02:52:15;;;;;;;16.40;10.52;;;;;;;;;;2129534;27;20096;-44
2022/12/12 02:53:16;;;;;;;17.60;12.40;;;;;;;;;;2129679;27;20046;-44
2022/12/12 02:54:19;;;;;;;15.52;11.82;;;;;;;;;;2129590;27;20047;-44
2022/12/12 02:55:20;;;;;;;15.18;10.20;;;;;;;;;;2130013;27;20050;-46
2022/12/12 02:56:40;;;;;;;17.87;12.37;;;;;;;;;;2129951;27;20126;-45
2022/12/12 02:57:41;;;;;;;14.68;10.02;;;;;;;;;;2129982;27;20043;-48
2022/12/12 02:58:42;;;;;;;14.17;11.43;;;;;;;;;;2129752;27;20043;-50
2022/12/12 02:59:45;;;;;;;15.18;9.45;;;;;;;;;;2129599;27;20376;-46
2022/12/12 03:00:51;;;;;;;14.30;10.43;;;;;;;;;;2129638;27;20399;-46
2022/12/12 03:02:07;;;;;;;14.45;9.93;;;;;;;;;;2129852;27;20070;-46
2022/12/12 03:07:46;;;;;;;13.95;9.60;;;;;;;;;;2098273;27;20410;-46
2022/12/12 03:08:54;;;;;;;13.73;9.63;;;;;;;;;;2129699;27;20043;-46
2022/12/12 03:10:01;;;;;;;11.77;8.85;;;;;;;;;;2129424;27;20051;-46
2022/12/12 03:11:04;;;;;;;13.57;10.35;;;;;;;;;;2129747;27;20498;-46
2022/12/12 03:12:08;;;;;;;12.02;8.73;;;;;;;;;;2129773;27;20050;-45
2022/12/12 03:13:12;;;;;;;14.90;9.82;;;;;;;;;;2129548;27;20057;-45
2022/12/12 03:14:16;;;;;;;13.27;9.93;;;;;;;;;;2129404;27;20043;-45
2022/12/12 03:15:21;;;;;;;12.07;7.93;;;;;;;;;;2129691;27;20042;-45
2022/12/12 03:16:24;;;;;;;12.95;10.18;;;;;;;;;;2129550;27;20058;-45
2022/12/12 03:17:28;;;;;;;12.20;8.43;;;;;;;;;;2129721;27;20051;-44
2022/12/12 03:18:32;;;;;;;14.27;10.38;;;;;;;;;;2129592;27;20042;-45
2022/12/12 03:19:39;;;;;;;13.98;10.55;;;;;;;;;;2129551;27;20050;-46
2022/12/12 03:20:44;;;;;;;13.45;9.85;;;;;;;;;;2129559;27;20501;-45
2022/12/12 03:21:46;;;;;;;13.13;10.23;;;;;;;;;;2129580;27;20050;-45
2022/12/12 03:22:50;;;;;;;13.15;10.27;;;;;;;;;;2129781;27;20043;-47
2022/12/12 03:23:53;;;;;;;17.77;11.20;;;;;;;;;;2129865;27;20479;-47
2022/12/12 03:24:57;;;;;;;13.40;9.93;;;;;;;;;;2129490;27;20472;-46
2022/12/12 03:26:00;;;;;;;14.15;10.20;;;;;;;;;;2129665;27;20054;-48
2022/12/12 03:27:05;;;;;;;12.55;7.65;;;;;;;;;;2129787;27;20047;-45
2022/12/12 03:28:08;;;;;;;13.13;10.30;;;;;;;;;;2129511;27;20433;-46
2022/12/12 03:29:10;;;;;;;14.93;10.20;;;;;;;;;;2129523;27;20053;-45
2022/12/12 03:30:13;;;;;;;14.20;10.93;;;;;;;;;;2129754;27;20051;-45
2022/12/12 03:31:16;;;;;;;14.90;11.10;;;;;;;;;;2129663;27;20051;-45
2022/12/12 03:32:18;;;;;;;13.80;9.90;;;;;;;;;;2129440;27;20091;-44
2022/12/12 03:33:24;;;;;;;15.50;11.13;;;;;;;;;;2129800;27;20100;-45
2022/12/12 03:34:29;;;;;;;15.75;10.70;;;;;;;;;;2129319;27;20042;-45
2022/12/12 03:35:32;;;;;;;14.27;10.57;;;;;;;;;;2129461;27;20487;-45
2022/12/12 03:36:36;;;;;;;15.60;11.40;;;;;;;;;;2129514;27;20046;-44
2022/12/12 03:37:40;;;;;;;15.48;11.07;;;;;;;;;;2129502;27;20051;-45
2022/12/12 03:38:43;;;;;;;16.95;12.60;;;;;;;;;;2129479;27;20049;-45
2022/12/12 03:39:46;;;;;;;16.10;11.00;;;;;;;;;;2129380;27;20067;-45
2022/12/12 03:40:48;;;;;;;15.73;12.27;;;;;;;;;;2129599;27;20053;-47
2022/12/12 03:41:51;;;;;;;16.67;12.05;;;;;;;;;;2129372;27;20399;-46
2022/12/12 03:42:55;;;;;;;17.00;11.60;;;;;;;;;;2129416;27;20376;-47
2022/12/12 03:43:59;;;;;;;16.50;11.40;;;;;;;;;;2129075;27;20067;-47
2022/12/12 03:45:03;;;;;;;14.90;10.43;;;;;;;;;;2129510;27;20253;-46
2022/12/12 03:46:06;;;;;;;16.52;11.70;;;;;;;;;;2123152;28;20437;-47
2022/12/12 03:47:09;;;;;;;16.25;10.23;;;;;;;;;;2123729;28;20115;-47
2022/12/12 03:48:14;;;;;;;16.90;11.27;;;;;;;;;;2124005;28;20096;-46
2022/12/12 03:49:18;;;;;;;13.57;9.45;;;;;;;;;;2123556;28;20049;-47
2022/12/12 03:50:20;;;;;;;15.75;11.80;;;;;;;;;;2123517;28;20047;-48
2022/12/12 03:51:25;;;;;;;17.42;12.52;;;;;;;;;;2123621;28;20503;-46
2022/12/12 03:52:29;;;;;;;15.13;11.20;;;;;;;;;;2123826;28;20054;-47
2022/12/12 03:53:33;;;;;;;16.23;12.25;;;;;;;;;;2123582;28;20483;-48
2022/12/12 03:54:36;;;;;;;14.70;9.27;;;;;;;;;;2123435;28;20043;-47
2022/12/12 03:55:43;;;;;;;16.17;11.25;;;;;;;;;;2123721;28;20047;-47
2022/12/12 03:56:48;;;;;;;16.85;12.10;;;;;;;;;;2123603;28;20039;-47
2022/12/12 03:57:51;;;;;;;15.82;10.18;;;;;;;;;;2123717;28;20047;-47
2022/12/12 03:58:53;;;;;;;18.42;12.50;;;;;;;;;;2123510;28;20449;-47
2022/12/12 03:59:58;;;;;;;15.95;9.63;;;;;;;;;;2123714;28;20043;-47
2022/12/12 04:01:03;;;;;;;17.10;11.80;;;;;;;;;;2123766;28;20047;-47
2022/12/12 04:02:08;;;;;;;17.42;10.95;;;;;;;;;;2123607;28;20058;-48
2022/12/12 04:03:16;;;;;;;15.85;9.43;;;;;;;;;;2123894;28;20047;-47
2022/12/12 04:04:20;;;;;;;17.58;12.45;;;;;;;;;;2123515;28;20528;-46
2022/12/12 04:05:24;;;;;;;14.18;8.98;;;;;;;;;;2123446;28;20043;-46
2022/12/12 04:06:30;;;;;;;19.08;12.55;;;;;;;;;;2123587;28;20479;-45
2022/12/12 04:07:33;;;;;;;14.68;9.30;;;;;;;;;;2123647;28;20040;-46
2022/12/12 04:08:34;;;;;;;18.02;12.70;;;;;;;;;;2123501;28;20351;-46
2022/12/12 04:13:42;;;;;;;20.02;13.40;;;;;;;;;;2123669;28;20044;-45
2022/12/12 04:15:03;;;;;;;19.92;13.35;;;;;;;;;;2123314;28;20039;-46
2022/12/12 04:16:05;;;;;;;19.48;12.18;;;;;;;;;;2123518;28;20054;-46
2022/12/12 04:17:07;;;;;;;22.65;13.45;;;;;;;;;;2123390;28;20047;-45
2022/12/12 04:18:13;;;;;;;16.02;9.85;;;;;;;;;;2123791;28;20050;-47
2022/12/12 04:23:13;;;;;;;21.67;14.80;;;;;;;;;;2123662;28;20097;-45
2022/12/12 04:23:31;;;;;;;20.23;10.15;;;;;;;;;;2123814;28;20483;-45
2022/12/12 04:24:35;;;;;;;21.25;14.73;;;;;;;;;;2123354;28;20298;-46
2022/12/12 04:26:37;;;;;;;23.27;14.20;;;;;;;;;;2123604;28;20047;-46
2022/12/12 04:27:03;;;;;;;18.15;10.50;;;;;;;;;;2123368;28;20134;-46
2022/12/12 04:28:06;;;;;;;19.30;12.30;;;;;;;;;;2123387;28;20428;-46
2022/12/12 04:29:10;;;;;;;19.50;13.27;;;;;;;;;;2123421;28;20054;-46
2022/12/12 04:30:12;;;;;;;20.48;13.95;;;;;;;;;;2123666;28;20058;-48
2022/12/12 04:31:14;;;;;;;19.63;13.75;;;;;;;;;;2124021;28;20050;-49
2022/12/12 04:32:19;;;;;;;20.90;12.98;;;;;;;;;;2123534;28;20426;-45
2022/12/12 04:33:23;;;;;;;22.92;14.77;;;;;;;;;;2123406;28;20103;-46
2022/12/12 04:34:27;;;;;;;20.05;13.30;;;;;;;;;;2123297;28;20138;-45
2022/12/12 04:35:30;;;;;;;19.05;13.05;;;;;;;;;;2123339;28;20080;-46
2022/12/12 04:36:33;;;;;;;20.85;13.75;;;;;;;;;;2123783;28;20055;-45
2022/12/12 04:37:36;;;;;;;18.60;12.05;;;;;;;;;;2123298;28;20392;-45
2022/12/12 04:38:38;;;;;;;16.45;10.30;;;;;;;;;;2123293;28;20043;-46
2022/12/12 04:39:40;;;;;;;20.67;14.80;;;;;;;;;;2123292;28;20039;-46
2022/12/12 04:40:43;;;;;;;18.42;12.68;;;;;;;;;;2123894;28;20062;-45
2022/12/12 04:41:45;;;;;;;16.88;11.43;;;;;;;;;;2123271;28;20039;-46
2022/12/12 04:42:50;;;;;;;21.80;13.25;;;;;;;;;;2123557;28;20046;-45
2022/12/12 04:43:53;;;;;;;23.65;15.38;;;;;;;;;;2123298;28;20050;-45
2022/12/12 04:44:56;;;;;;;21.45;13.20;;;;;;;;;;2123213;28;20047;-45
2022/12/12 04:46:00;;;;;;;22.17;14.07;;;;;;;;;;2123381;28;20054;-45
2022/12/12 04:47:02;;;;;;;23.02;14.93;;;;;;;;;;2123423;28;20047;-45
2022/12/12 04:48:04;;;;;;;22.58;13.15;;;;;;;;;;2123480;28;20080;-45
2022/12/12 04:49:07;;;;;;;25.38;15.88;;;;;;;;;;2123228;28;20445;-46
2022/12/12 04:50:09;;;;;;;21.27;12.07;;;;;;;;;;2123400;28;20047;-46
2022/12/12 04:51:11;;;;;;;23.38;14.45;;;;;;;;;;2123337;28;20043;-45
2022/12/12 04:52:11;;;;;;;;;;;;;;;;;;2123874;28;20070;-45
2022/12/12 04:53:15;;;;;;;26.25;15.90;;;;;;;;;;2123258;28;20540;-45
2022/12/12 04:54:22;;;;;;;24.02;16.35;;;;;;;;;;2123202;28;20043;-45
2022/12/12 04:55:26;;;;;;;23.02;14.73;;;;;;;;;;2123530;28;20285;-45
2022/12/12 04:56:28;;;;;;;25.15;17.27;;;;;;;;;;2123331;28;20051;-45
2022/12/12 04:57:33;;;;;;;24.58;16.85;;;;;;;;;;2122144;27;20043;-44
2022/12/12 04:58:35;;;;;;;23.45;15.18;;;;;;;;;;2123388;28;20044;-44
2022/12/12 04:59:36;;;;;;;21.08;12.90;;;;;;;;;;2123146;28;20046;-46
2022/12/12 05:00:40;;;;;;;22.30;15.68;;;;;;;;;;2123352;28;20047;-45
2022/12/12 05:01:45;;;;;;;22.35;13.32;;;;;;;;;;2123382;28;20050;-46
2022/12/12 05:02:53;;;;;;;;;;;;;;;;;;2123696;28;20050;-46
2022/12/12 05:03:55;;;;;;;18.27;10.20;;;;;;;;;;2123285;28;20031;-46
2022/12/12 05:04:59;;;;;;;21.48;14.70;;;;;;;;;;2123187;28;20074;-44
2022/12/12 05:06:01;;;;;;;19.15;12.15;;;;;;;;;;2123243;28;20047;-46
2022/12/12 05:07:02;;;;;;;;;;;;;;;;;;2123975;28;20046;-47
2022/12/12 05:08:06;;;;;;;18.73;11.15;;;;;;;;;;2123274;28;20008;-45
2022/12/12 05:09:10;;;;;;;18.33;12.95;;;;;;;;;;2123076;28;20490;-45
2022/12/12 05:10:13;;;;;;;18.42;12.10;;;;;;;;;;2123464;28;20128;-46
2022/12/12 05:11:14;;;;;;;19.40;12.32;;;;;;;;;;2123129;28;20043;-45
2022/12/12 05:12:16;;;;;;;20.80;13.75;;;;;;;;;;2123407;28;20058;-46
2022/12/12 05:13:18;;;;;;;17.55;10.20;;;;;;;;;;2123107;28;20403;-45
2022/12/12 05:14:20;;;;;;;18.60;12.25;;;;;;;;;;2123273;28;20023;-45
2022/12/12 05:15:21;;;;;;;19.48;12.45;;;;;;;;;;2123258;28;20100;-48
2022/12/12 05:16:24;;;;;;;18.42;11.02;;;;;;;;;;2123417;28;20059;-46
2022/12/12 05:17:29;;;;;;;18.38;12.40;;;;;;;;;;2123033;28;20381;-46
2022/12/12 05:18:30;;;;;;;17.83;11.85;;;;;;;;;;2122982;28;20050;-46
2022/12/12 05:19:31;;;;;;;16.13;10.68;;;;;;;;;;2123394;28;20047;-46
2022/12/12 05:20:32;;;;;;;16.30;9.50;;;;;;;;;;2123142;28;20090;-44
2022/12/12 05:21:33;;;;;;;20.13;12.95;;;;;;;;;;2123021;28;20050;-45
2022/12/12 05:22:35;;;;;;;14.38;7.93;;;;;;;;;;2123270;28;20035;-47
2022/12/12 05:23:35;;;;;;;19.25;12.52;;;;;;;;;;2123984;28;20050;-46
2022/12/12 05:24:38;;;;;;;16.13;11.10;;;;;;;;;;2123159;28;20121;-44
2022/12/12 05:25:39;;;;;;;19.45;11.65;;;;;;;;;;2123026;28;20043;-44
2022/12/12 05:26:40;;;;;;;20.37;13.13;;;;;;;;;;2123473;28;20053;-44
2022/12/12 05:27:41;;;;;;;16.00;8.27;;;;;;;;;;2123068;28;20047;-44
2022/12/12 05:28:42;;;;;;;17.33;10.40;;;;;;;;;;2123719;28;20045;-44
2022/12/12 05:29:43;;;;;;;16.10;8.75;;;;;;;;;;2123417;28;20043;-45
2022/12/12 05:30:45;;;;;;;21.38;11.35;;;;;;;;;;2123294;28;20047;-44
2022/12/12 05:31:46;;;;;;;17.40;11.90;;;;;;;;;;2123305;28;20464;-47
2022/12/12 05:32:47;;;;;;;18.88;11.35;;;;;;;;;;2123328;28;20050;-48
2022/12/12 05:33:48;;;;;;;18.73;9.57;;;;;;;;;;2122822;28;20418;-49
2022/12/12 05:34:49;;;;;;;16.92;9.63;;;;;;;;;;2123275;28;20047;-45
2022/12/12 05:35:50;;;;;;;21.53;13.47;;;;;;;;;;2123248;28;20134;-47
2022/12/12 05:36:52;;;;;;;19.65;9.82;;;;;;;;;;2115168;28;20126;-46
2022/12/12 05:37:53;;;;;;;21.38;13.65;;;;;;;;;;2114462;28;20511;-49
2022/12/12 05:38:54;;;;;;;18.73;10.23;;;;;;;;;;2114622;28;20194;-43
2022/12/12 05:39:55;;;;;;;23.13;13.73;;;;;;;;;;2114719;28;20052;-45
2022/12/12 05:40:57;;;;;;;16.58;10.23;;;;;;;;;;2114585;28;20039;-47
2022/12/12 05:41:57;;;;;;;18.25;9.98;;;;;;;;;;2114387;28;20039;-46
2022/12/12 05:42:59;;;;;;;22.85;14.82;;;;;;;;;;2114507;28;20051;-46
2022/12/12 05:44:00;;;;;;;18.52;10.23;;;;;;;;;;2114148;28;20535;-46
2022/12/12 05:45:01;;;;;;;20.70;12.10;;;;;;;;;;2114373;28;20119;-45
2022/12/12 05:46:02;;;;;;;17.95;9.85;;;;;;;;;;2114505;28;20101;-45
2022/12/12 05:47:03;;;;;;;19.38;12.68;;;;;;;;;;2114458;28;20075;-46
2022/12/12 05:48:05;;;;;;;18.40;12.47;;;;;;;;;;2114546;28;20104;-45
2022/12/12 05:49:06;;;;;;;14.30;8.60;;;;;;;;;;2114274;28;20054;-47
2022/12/12 05:50:07;;;;;;;16.42;11.45;;;;;;;;;;2114367;28;20130;-45
2022/12/12 05:51:08;;;;;;;15.73;9.40;;;;;;;;;;2114476;28;20066;-46
2022/12/12 05:52:09;;;;;;;15.63;8.27;;;;;;;;;;2114690;28;20047;-47
2022/12/12 05:53:10;;;;;;;18.02;11.80;;;;;;;;;;2114381;28;20051;-46
2022/12/12 05:54:12;;;;;;;18.65;10.40;;;;;;;;;;2114401;28;20047;-46
2022/12/12 05:55:14;;;;;;;17.13;10.85;;;;;;;;;;2114308;28;20047;-46
2022/12/12 05:56:15;;;;;;;;;;;;;;;;;;2114733;28;20491;-47
2022/12/12 05:57:17;;;;;;;14.30;7.45;;;;;;;;;;2114323;28;19999;-46
2022/12/12 05:58:19;;;;;;;17.25;10.10;;;;;;;;;;2114486;28;20039;-42
2022/12/12 05:59:20;;;;;;;16.05;10.57;;;;;;;;;;2114339;28;20047;-42
2022/12/12 06:00:21;;;;;;;15.80;9.82;;;;;;;;;;2114423;28;20088;-42
2022/12/12 06:01:23;;;;;;;18.77;12.05;;;;;;;;;;2114532;28;20155;-42
2022/12/12 06:02:23;;;;;;;18.13;9.55;;;;;;;;;;2114301;28;20488;-42
2022/12/12 06:03:25;;;;;;;21.63;11.77;;;;;;;;;;2114696;28;20054;-45
2022/12/12 06:04:25;;;;;;;18.95;10.07;;;;;;;;;;2114324;28;20043;-46
2022/12/12 06:05:27;;;;;;;22.60;12.95;;;;;;;;;;2114243;28;20127;-46
2022/12/12 06:06:28;;;;;;;19.23;11.32;;;;;;;;;;2114635;28;20047;-42
2022/12/12 06:07:29;;;;;;;20.07;10.50;;;;;;;;;;2114227;28;20036;-42
2022/12/12 06:08:30;;;;;;;21.65;13.57;;;;;;;;;;2114049;28;20291;-42
2022/12/12 06:09:31;;;;;;;20.83;10.25;;;;;;;;;;2114247;28;20052;-42
2022/12/12 06:10:33;;;;;;;21.77;11.45;;;;;;;;;;2114360;28;20040;-45
2022/12/12 06:11:34;;;;;;;22.95;14.23;;;;;;;;;;2114332;28;20077;-47
2022/12/12 06:12:35;;;;;;;20.25;9.90;;;;;;;;;;2114399;28;20054;-46
2022/12/12 06:13:36;;;;;;;26.50;15.27;;;;;;;;;;2114332;28;20046;-45
2022/12/12 06:14:38;;;;;;;20.63;11.07;;;;;;;;;;2114073;28;20047;-47
2022/12/12 06:15:39;;;;;;;23.10;13.50;;;;;;;;;;2114556;28;20052;-43
2022/12/12 06:16:40;;;;;;;23.00;13.43;;;;;;;;;;2114141;28;20057;-42
2022/12/12 06:17:41;;;;;;;21.88;13.18;;;;;;;;;;2114207;28;20444;-42
2022/12/12 06:18:43;;;;;;;22.40;10.15;;;;;;;;;;2114280;28;20040;-43
2022/12/12 06:19:44;;;;;;;26.52;14.52;;;;;;;;;;2114444;28;20046;-42
2022/12/12 06:20:45;;;;;;;25.65;14.13;;;;;;;;;;2114209;28;20044;-43
2022/12/12 06:21:46;;;;;;;20.95;10.75;;;;;;;;;;2114226;28;20643;-43
2022/12/12 06:22:47;;;;;;;23.42;13.27;;;;;;;;;;2114126;28;20044;-43
2022/12/12 06:23:54;;;;;;;23.98;13.85;;;;;;;;;;2114250;28;20368;-43
2022/12/12 06:24:55;;;;;;;29.58;18.80;;;;;;;;;;2114261;28;20047;-43
2022/12/12 06:25:57;;;;;;;29.30;16.80;;;;;;;;;;2114311;28;20083;-42
2022/12/12 06:26:58;;;;;;;31.42;17.75;;;;;;;;;;2114297;28;20052;-42
2022/12/12 06:28:00;;;;;;;25.27;12.53;;;;;;;;;;2114359;28;20044;-42
2022/12/12 06:29:01;;;;;;;29.77;18.38;;;;;;;;;;2114197;28;20043;-42
2022/12/12 06:30:02;;;;;;;32.83;19.90;;;;;;;;;;2114104;28;20044;-42
2022/12/12 06:31:04;;;;;;;33.03;17.27;;;;;;;;;;2114287;28;20054;-42
2022/12/12 06:32:12;;;;;;;27.63;16.40;;;;;;;;;;2113878;28;20047;-42
2022/12/12 06:33:13;;;;;;;30.83;15.10;;;;;;;;;;2114207;28;20480;-42
2022/12/12 06:34:14;;;;;;;28.58;15.50;;;;;;;;;;2114043;28;20051;-42
2022/12/12 06:35:15;;;;;;;29.63;18.13;;;;;;;;;;2114124;28;20051;-42
2022/12/12 06:36:22;;;;;;;26.05;13.93;;;;;;;;;;2114215;28;20055;-42
2022/12/12 06:37:23;;;;;;;27.20;15.90;;;;;;;;;;2114271;28;20081;-42
2022/12/12 06:38:24;;;;;;;26.20;12.43;;;;;;;;;;2114214;28;20201;-42
2022/12/12 06:39:26;;;;;;;29.77;17.35;;;;;;;;;;2114280;28;20491;-43
2022/12/12 06:40:27;;;;;;;27.45;13.93;;;;;;;;;;2114078;28;20533;-42
2022/12/12 06:41:30;;;;;;;31.60;16.23;;;;;;;;;;2114054;28;20281;-42
2022/12/12 06:42:31;;;;;;;27.95;13.98;;;;;;;;;;2114278;28;20048;-42
2022/12/12 06:43:32;;;;;;;29.73;18.17;;;;;;;;;;2113793;28;20054;-42
2022/12/12 06:44:33;;;;;;;50.23;24.90;;;;;;;;;;2114149;28;20066;-42
2022/12/12 06:45:34;;;;;;;28.55;16.73;;;;;;;;;;2114180;28;20047;-42
2022/12/12 06:46:35;;;;;;;29.00;17.40;;;;;;;;;;2113973;28;20420;-42
2022/12/12 06:47:37;;;;;;;27.00;16.17;;;;;;;;;;2114025;28;20400;-42
2022/12/12 06:48:38;;;;;;;26.85;15.43;;;;;;;;;;2114310;28;20055;-42
2022/12/12 06:49:39;;;;;;;30.33;18.13;;;;;;;;;;2114001;28;20043;-42
2022/12/12 06:50:40;;;;;;;26.80;13.75;;;;;;;;;;2114184;28;20067;-42
2022/12/12 06:51:43;;;;;;;27.17;17.30;;;;;;;;;;2114242;28;20054;-42
2022/12/12 06:52:44;;;;;;;30.00;13.90;;;;;;;;;;2113922;28;20396;-42
2022/12/12 06:53:45;;;;;;;40.70;24.08;;;;;;;;;;2113996;28;20437;-42
2022/12/12 06:54:46;;;;;;;38.15;20.10;;;;;;;;;;2113880;28;20484;-42
2022/12/12 06:55:47;;;;;;;56.30;27.85;;;;;;;;;;2114306;28;20096;-47
2022/12/12 06:56:49;;;;;;;38.27;20.70;;;;;;;;;;2114083;28;20051;-48
2022/12/12 06:57:50;;;;;;;60.90;31.02;;;;;;;;;;2114181;28;20050;-50
2022/12/12 06:58:51;;;;;;;70.28;37.22;;;;;;;;;;2113974;28;20495;-45
2022/12/12 06:59:52;;;;;;;41.65;22.73;;;;;;;;;;2114173;28;20055;-47
2022/12/12 07:00:53;;;;;;;76.22;35.95;;;;;;;;;;2114198;28;20052;-47
2022/12/12 07:01:55;;;;;;;94.32;50.58;;;;;;;;;;2114027;28;20071;-45
2022/12/12 07:02:56;;;;;;;47.97;25.20;;;;;;;;;;2113996;28;20078;-46
2022/12/12 07:03:57;;;;;;;32.33;18.42;;;;;;;;;;2113889;28;20044;-48
2022/12/12 07:04:58;;;;;;;42.27;28.67;;;;;;;;;;2114162;28;20048;-45
2022/12/12 07:05:59;;;;;;;25.23;15.23;;;;;;;;;;2113918;28;20287;-48
2022/12/12 07:07:00;;;;;;;54.50;35.38;;;;;;;;;;2114161;28;20055;-47
2022/12/12 07:08:01;;;;;;;49.00;34.05;;;;;;;;;;2114031;28;20055;-50
2022/12/12 07:09:03;;;;;;;32.70;20.15;;;;;;;;;;2113875;28;20552;-46
2022/12/12 07:10:04;;;;;;;24.98;14.90;;;;;;;;;;2114060;28;20048;-47
2022/12/12 07:11:06;;;;;;;22.17;11.90;;;;;;;;;;2114251;28;20074;-46
2022/12/12 07:12:07;;;;;;;33.67;22.30;;;;;;;;;;2114253;28;20058;-42
2022/12/12 07:13:08;;;;;;;31.40;19.17;;;;;;;;;;2114294;28;20055;-41
2022/12/12 07:14:10;;;;;;;33.90;24.17;;;;;;;;;;2113993;28;20048;-48
2022/12/12 07:15:11;;;;;;;27.15;17.42;;;;;;;;;;2114085;28;20775;-46
2022/12/12 07:16:12;;;;;;;31.08;21.92;;;;;;;;;;2114051;28;20052;-47
2022/12/12 07:17:13;;;;;;;26.40;15.73;;;;;;;;;;2113811;28;20047;-48
2022/12/12 07:18:15;;;;;;;26.40;15.63;;;;;;;;;;2113916;28;20291;-48
2022/12/12 07:19:16;;;;;;;28.85;16.13;;;;;;;;;;2114112;28;20480;-49
2022/12/12 07:20:17;;;;;;;23.73;14.15;;;;;;;;;;2113957;28;20054;-46
2022/12/12 07:21:20;;;;;;;23.20;11.82;;;;;;;;;;2115103;28;20399;-46
2022/12/12 07:22:21;;;;;;;26.55;17.17;;;;;;;;;;2115518;28;20051;-48
2022/12/12 07:23:22;;;;;;;26.10;15.10;;;;;;;;;;2115190;28;20052;-47
2022/12/12 07:24:23;;;;;;;28.30;17.10;;;;;;;;;;2115726;28;20247;-42
2022/12/12 07:25:24;;;;;;;26.73;16.27;;;;;;;;;;2115412;28;20408;-41
2022/12/12 07:26:27;;;;;;;48.80;26.10;;;;;;;;;;2115254;28;20503;-47
2022/12/12 07:27:28;;;;;;;41.47;24.23;;;;;;;;;;2115484;28;20044;-47
2022/12/12 07:28:29;;;;;;;30.63;16.00;;;;;;;;;;2115894;28;20042;-46
2022/12/12 07:29:31;;;;;;;30.88;19.45;;;;;;;;;;2123536;28;20396;-46
2022/12/12 07:30:32;;;;;;;26.85;14.18;;;;;;;;;;2123708;28;20051;-46
2022/12/12 07:31:33;;;;;;;27.42;17.02;;;;;;;;;;2123469;28;20046;-42
2022/12/12 07:32:34;;;;;;;35.53;21.92;;;;;;;;;;2123289;28;20043;-46
2022/12/12 07:33:36;;;;;;;31.17;16.40;;;;;;;;;;2123519;28;20043;-46
2022/12/12 07:34:45;;;;;;;29.20;18.13;;;;;;;;;;2123300;28;20050;-41
2022/12/12 07:35:45;;;;;;;28.58;16.98;;;;;;;;;;2123087;28;20419;-42